Time;durP1;ratioP1;P1;durP2;ratioP2;P2;SDS_P1;SDS_P2;PMS_P1;PMS_P2;Temp;Humidity;BMP_temperature;BMP_pressure;BME280_temperature;BME280_humidity;BME280_pressure;Samples;Min_cycle;Max_cycle;Signal;HPM_P1;HPM_P2
2021/06/26 00:01:35;;;;;;;22.20;10.80;;;18.40;92.30;;;;;;5037439;28;20742;-81
2021/06/26 00:04:01;;;;;;;18.07;10.53;;;18.40;92.30;;;;;;5036623;28;20217;-81
2021/06/26 00:06:27;;;;;;;18.80;9.10;;;18.40;92.50;;;;;;5036058;28;20409;-81
2021/06/26 00:08:53;;;;;;;17.87;10.43;;;18.40;92.50;;;;;;5035949;28;20209;-81
2021/06/26 00:11:21;;;;;;;17.73;9.60;;;18.40;92.90;;;;;;5036324;28;20251;-81
2021/06/26 00:13:48;;;;;;;20.73;11.07;;;18.40;93.00;;;;;;5036598;28;20473;-81
2021/06/26 00:16:14;;;;;;;17.77;9.77;;;18.30;93.50;;;;;;5036891;28;20174;-81
2021/06/26 00:18:39;;;;;;;18.87;9.13;;;18.30;93.90;;;;;;5036251;28;20460;-81
2021/06/26 00:21:05;;;;;;;16.70;10.07;;;18.30;94.00;;;;;;5036698;28;20424;-81
2021/06/26 00:23:31;;;;;;;20.97;10.20;;;18.20;94.10;;;;;;5035965;28;20706;-80
2021/06/26 00:25:57;;;;;;;20.63;10.77;;;18.30;94.30;;;;;;5035865;28;20201;-81
2021/06/26 00:28:22;;;;;;;27.10;10.73;;;18.30;94.40;;;;;;5036563;28;20408;-80
2021/06/26 00:30:48;;;;;;;25.67;11.70;;;18.30;94.70;;;;;;5036053;28;20201;-81
2021/06/26 00:33:14;;;;;;;18.10;10.33;;;18.20;94.80;;;;;;5037022;28;20528;-81
2021/06/26 00:35:40;;;;;;;25.90;11.02;;;18.30;94.20;;;;;;5036565;28;20193;-81
2021/06/26 00:38:06;;;;;;;19.80;11.27;;;18.30;93.90;;;;;;5037011;28;20174;-81
2021/06/26 00:40:31;;;;;;;18.77;11.10;;;18.30;93.70;;;;;;5036435;28;20412;-81
2021/06/26 00:42:59;;;;;;;19.20;9.63;;;18.30;93.90;;;;;;5036119;28;20285;-80
2021/06/26 00:45:25;;;;;;;19.30;9.75;;;18.30;93.70;;;;;;5036185;28;20196;-81
2021/06/26 00:47:51;;;;;;;17.33;10.57;;;18.40;93.60;;;;;;5036611;28;20178;-81
2021/06/26 00:50:24;;;;;;;18.35;9.98;;;18.40;93.50;;;;;;5035745;28;20411;-81
2021/06/26 00:52:50;;;;;;;25.33;10.15;;;18.40;93.60;;;;;;5035526;28;20205;-81
2021/06/26 00:55:17;;;;;;;18.45;9.93;;;18.40;93.40;;;;;;5036399;28;20181;-81
2021/06/26 00:57:54;;;;;;;19.85;10.40;;;18.40;93.20;;;;;;5034707;28;20585;-80
2021/06/26 01:00:20;;;;;;;16.13;9.18;;;18.40;93.60;;;;;;5034144;28;20184;-81
2021/06/26 01:02:46;;;;;;;20.20;10.63;;;18.40;93.30;;;;;;5112393;22;20205;-80
2021/06/26 01:05:12;;;;;;;20.03;10.00;;;18.40;93.40;;;;;;5040485;28;20193;-80
2021/06/26 01:07:39;;;;;;;13.93;9.02;;;18.40;93.50;;;;;;5042550;28;20504;-81
2021/06/26 01:10:06;;;;;;;16.67;8.40;;;18.40;93.40;;;;;;5041613;28;20177;-81
2021/06/26 01:12:32;;;;;;;18.08;10.07;;;18.40;93.30;;;;;;5041395;28;20213;-81
2021/06/26 01:14:58;;;;;;;18.92;10.27;;;18.40;93.40;;;;;;5042661;28;20174;-81
2021/06/26 01:17:24;;;;;;;20.00;10.73;;;18.40;93.20;;;;;;5040729;28;20235;-80
2021/06/26 01:19:50;;;;;;;18.00;9.77;;;18.40;93.30;;;;;;5041106;28;20170;-81
2021/06/26 01:22:21;;;;;;;21.50;9.57;;;18.30;93.70;;;;;;5041395;28;20416;-81
2021/06/26 01:24:47;;;;;;;17.45;9.32;;;18.30;94.10;;;;;;5041156;28;20170;-81
2021/06/26 01:27:14;;;;;;;27.70;10.85;;;18.30;94.40;;;;;;5040887;28;20240;-81
2021/06/26 01:29:49;;;;;;;22.17;11.18;;;18.30;94.70;;;;;;5041241;28;20170;-81
2021/06/26 01:32:16;;;;;;;18.90;9.98;;;18.30;95.10;;;;;;5040511;28;20205;-81
2021/06/26 01:34:42;;;;;;;17.75;10.23;;;18.30;95.20;;;;;;5040062;28;20193;-81
2021/06/26 01:37:08;;;;;;;26.65;11.45;;;18.30;95.30;;;;;;5040983;28;20173;-81
2021/06/26 01:39:33;;;;;;;21.92;11.32;;;18.30;95.50;;;;;;5041337;28;20255;-81
2021/06/26 01:41:59;;;;;;;24.03;11.60;;;18.30;95.80;;;;;;5041178;28;20170;-81
2021/06/26 01:44:25;;;;;;;22.67;11.20;;;18.20;95.90;;;;;;5041876;28;20763;-81
2021/06/26 01:46:51;;;;;;;21.33;11.27;;;18.20;96.20;;;;;;5041730;28;20264;-81
2021/06/26 01:49:18;;;;;;;24.98;13.77;;;18.20;96.70;;;;;;5040836;28;20185;-81
2021/06/26 01:51:44;;;;;;;23.45;12.88;;;18.10;97.70;;;;;;5041103;28;20229;-81
2021/06/26 01:54:11;;;;;;;24.52;12.70;;;18.10;98.00;;;;;;5042465;28;20212;-85
2021/06/26 01:56:37;;;;;;;26.33;12.50;;;18.20;98.20;;;;;;5043242;28;20261;-86
2021/06/26 01:59:07;;;;;;;31.65;14.98;;;18.20;98.30;;;;;;5043798;28;20654;-84
2021/06/26 02:01:33;;;;;;;25.85;11.95;;;18.20;98.30;;;;;;5043730;28;20173;-84
2021/06/26 02:04:00;;;;;;;23.05;12.60;;;18.20;98.30;;;;;;5044362;28;20233;-86
2021/06/26 02:06:25;;;;;;;24.58;12.57;;;18.20;98.60;;;;;;5044055;28;20170;-84
2021/06/26 02:08:51;;;;;;;23.67;12.67;;;18.20;98.50;;;;;;5040741;28;20170;-86
2021/06/26 02:11:17;;;;;;;27.93;13.30;;;18.20;98.50;;;;;;5039040;28;20284;-88
2021/06/26 02:13:43;;;;;;;26.77;12.47;;;18.20;98.70;;;;;;5037731;28;20189;-84
2021/06/26 02:16:09;;;;;;;20.67;10.82;;;18.20;98.60;;;;;;5039253;28;20963;-85
2021/06/26 02:18:35;;;;;;;22.02;11.65;;;18.30;98.80;;;;;;5039287;28;20170;-81
2021/06/26 02:21:06;;;;;;;22.43;11.60;;;18.30;98.60;;;;;;5038445;28;20170;-81
2021/06/26 02:23:32;;;;;;;24.77;11.77;;;18.30;98.40;;;;;;5038627;28;20642;-81
2021/06/26 02:25:58;;;;;;;28.27;11.55;;;18.30;98.40;;;;;;5038844;28;20221;-81
2021/06/26 02:28:24;;;;;;;22.37;12.13;;;18.30;98.60;;;;;;5038665;28;20641;-81
2021/06/26 02:30:49;;;;;;;25.30;11.53;;;18.30;98.50;;;;;;5038376;28;20808;-81
2021/06/26 02:33:15;;;;;;;37.53;13.40;;;18.30;98.60;;;;;;5038040;28;20193;-81
2021/06/26 02:35:41;;;;;;;24.03;13.80;;;18.30;98.70;;;;;;5037799;28;20440;-81
2021/06/26 02:38:07;;;;;;;27.70;12.63;;;18.30;98.80;;;;;;5038349;28;20260;-81
2021/06/26 02:40:33;;;;;;;34.97;11.30;;;18.30;98.90;;;;;;5038376;28;20408;-81
2021/06/26 02:42:59;;;;;;;17.95;10.32;;;18.30;98.80;;;;;;5038781;28;20448;-82
2021/06/26 02:45:25;;;;;;;24.40;12.38;;;18.30;98.60;;;;;;5037995;28;20638;-81
2021/06/26 02:47:51;;;;;;;21.80;11.47;;;18.30;98.40;;;;;;5038157;28;20174;-81
2021/06/26 02:50:17;;;;;;;19.43;10.70;;;18.40;98.10;;;;;;5037909;28;20455;-81
2021/06/26 02:52:43;;;;;;;23.80;11.07;;;18.40;97.90;;;;;;5037484;28;20546;-81
2021/06/26 02:55:09;;;;;;;22.60;13.40;;;18.40;97.80;;;;;;5037240;28;20416;-81
2021/06/26 02:57:36;;;;;;;23.35;12.25;;;18.30;98.00;;;;;;5037585;28;20179;-81
2021/06/26 03:00:05;;;;;;;23.90;11.13;;;18.30;98.00;;;;;;5037552;28;20228;-81
2021/06/26 03:02:30;;;;;;;26.73;13.63;;;18.30;98.20;;;;;;5037036;28;20197;-81
2021/06/26 03:04:56;;;;;;;21.20;10.43;;;18.30;98.20;;;;;;5037656;28;20192;-84
2021/06/26 03:07:22;;;;;;;29.57;12.73;;;18.30;98.40;;;;;;5036426;28;20425;-82
2021/06/26 03:09:49;;;;;;;31.23;11.38;;;18.30;98.40;;;;;;5037478;28;20444;-82
2021/06/26 03:12:15;;;;;;;22.23;10.90;;;18.30;98.40;;;;;;5036802;28;20205;-82
2021/06/26 03:14:41;;;;;;;21.30;11.55;;;18.30;98.10;;;;;;5038376;28;20174;-82
2021/06/26 03:17:07;;;;;;;23.77;11.73;;;18.30;97.90;;;;;;5037447;28;20718;-82
2021/06/26 03:19:33;;;;;;;28.50;11.00;;;18.30;97.70;;;;;;5038120;28;20458;-82
2021/06/26 03:21:59;;;;;;;27.52;13.20;;;18.30;97.80;;;;;;5037904;28;20416;-82
2021/06/26 03:24:27;;;;;;;26.15;11.77;;;18.30;97.80;;;;;;5037989;28;20177;-82
2021/06/26 03:26:54;;;;;;;23.77;11.73;;;18.20;97.70;;;;;;5038557;28;20546;-82
2021/06/26 03:29:20;;;;;;;23.52;11.43;;;18.20;97.80;;;;;;5038217;28;20186;-82
2021/06/26 03:31:46;;;;;;;23.20;11.77;;;18.20;97.70;;;;;;5038978;28;20266;-85
2021/06/26 03:34:12;;;;;;;26.80;11.57;;;18.10;97.70;;;;;;5039857;28;20874;-84
2021/06/26 03:36:37;;;;;;;32.13;13.03;;;18.10;97.80;;;;;;5040103;28;20532;-85
2021/06/26 03:39:04;;;;;;;23.87;11.57;;;18.10;97.80;;;;;;5040141;28;20412;-86
2021/06/26 03:41:29;;;;;;;24.20;11.63;;;18.00;97.70;;;;;;5039310;28;20812;-86
2021/06/26 03:43:58;;;;;;;21.10;10.93;;;18.00;97.70;;;;;;5039607;28;20205;-88
2021/06/26 03:46:25;;;;;;;23.83;12.30;;;18.00;97.60;;;;;;5038422;28;20412;-85
2021/06/26 03:48:51;;;;;;;24.00;10.48;;;18.00;97.40;;;;;;5039472;28;20602;-84
2021/06/26 03:51:17;;;;;;;25.35;12.00;;;17.90;97.30;;;;;;5038790;28;20292;-85
2021/06/26 03:53:46;;;;;;;22.33;11.90;;;17.90;97.40;;;;;;5038760;28;20229;-84
2021/06/26 03:56:12;;;;;;;27.85;12.95;;;17.90;97.80;;;;;;5039100;28;20189;-84
2021/06/26 03:58:37;;;;;;;19.80;11.10;;;17.80;97.90;;;;;;5037743;28;20698;-85
2021/06/26 04:01:03;;;;;;;22.17;11.17;;;17.70;98.10;;;;;;5038704;28;20611;-84
2021/06/26 04:03:29;;;;;;;25.13;12.95;;;17.70;98.20;;;;;;5038176;28;20220;-84
2021/06/26 04:05:55;;;;;;;32.03;12.82;;;17.60;98.30;;;;;;5038316;28;20190;-85
2021/06/26 04:08:21;;;;;;;28.13;12.47;;;17.60;98.40;;;;;;5037258;28;20257;-84
2021/06/26 04:10:47;;;;;;;23.33;13.30;;;17.60;98.40;;;;;;5036816;28;20424;-84
2021/06/26 04:13:13;;;;;;;25.17;12.40;;;17.60;98.40;;;;;;5037210;28;20521;-84
2021/06/26 04:15:39;;;;;;;23.40;11.27;;;17.60;98.70;;;;;;5037412;28;20495;-84
2021/06/26 04:18:05;;;;;;;24.13;12.55;;;17.60;98.60;;;;;;5038345;28;20229;-84
2021/06/26 04:20:31;;;;;;;20.80;10.85;;;17.60;98.70;;;;;;5037492;28;20169;-84
2021/06/26 04:22:57;;;;;;;27.40;12.47;;;17.60;98.70;;;;;;5037573;28;20198;-84
2021/06/26 04:25:24;;;;;;;26.80;13.40;;;17.60;98.90;;;;;;5036937;28;20460;-84
2021/06/26 04:27:50;;;;;;;22.05;10.65;;;17.60;99.00;;;;;;5037496;28;20444;-84
2021/06/26 04:30:16;;;;;;;37.65;13.10;;;17.60;99.10;;;;;;5037425;28;20265;-84
2021/06/26 04:32:42;;;;;;;24.63;12.25;;;17.60;99.10;;;;;;5036939;28;20300;-84
2021/06/26 04:35:11;;;;;;;25.52;11.88;;;17.70;99.10;;;;;;5036576;28;20181;-84
2021/06/26 04:37:37;;;;;;;27.30;12.18;;;17.70;99.10;;;;;;5035855;28;20245;-84
2021/06/26 04:40:04;;;;;;;25.57;11.90;;;17.80;98.90;;;;;;5037058;28;20657;-84
2021/06/26 04:42:30;;;;;;;20.35;11.48;;;17.80;98.80;;;;;;5036610;28;20437;-84
2021/06/26 04:44:57;;;;;;;19.33;10.70;;;17.90;98.80;;;;;;5036236;28;20174;-84
2021/06/26 04:47:24;;;;;;;21.63;11.98;;;17.90;98.40;;;;;;5036772;28;20174;-84
2021/06/26 04:49:50;;;;;;;23.65;12.07;;;18.00;97.90;;;;;;5036128;28;20260;-84
2021/06/26 04:52:16;;;;;;;23.90;12.57;;;18.10;97.70;;;;;;5035787;28;20245;-84
2021/06/26 04:54:42;;;;;;;26.20;13.20;;;18.10;97.70;;;;;;5035899;28;20188;-84
2021/06/26 04:57:08;;;;;;;22.73;12.23;;;18.10;97.50;;;;;;5036015;28;20789;-84
2021/06/26 04:59:33;;;;;;;23.60;13.37;;;18.20;97.50;;;;;;5036034;28;20413;-84
2021/06/26 05:02:00;;;;;;;26.33;13.90;;;18.30;97.60;;;;;;5035424;28;20416;-84
2021/06/26 05:04:26;;;;;;;25.45;13.32;;;18.30;97.90;;;;;;5035325;28;20436;-84
2021/06/26 05:06:51;;;;;;;36.10;14.43;;;18.40;98.00;;;;;;5034707;28;20676;-82
2021/06/26 05:09:17;;;;;;;29.37;13.80;;;18.40;98.00;;;;;;5034108;28;20837;-82
2021/06/26 05:11:43;;;;;;;26.03;13.40;;;18.40;97.80;;;;;;5034211;28;20201;-82
2021/06/26 05:14:10;;;;;;;29.00;13.65;;;18.50;97.40;;;;;;5033819;28;20499;-82
2021/06/26 05:16:36;;;;;;;38.13;14.70;;;18.60;97.10;;;;;;5033583;28;20178;-82
2021/06/26 05:19:02;;;;;;;38.10;15.13;;;18.60;97.20;;;;;;5033693;28;20252;-82
2021/06/26 05:21:28;;;;;;;28.88;14.25;;;18.60;96.90;;;;;;5034497;28;20687;-83
2021/06/26 05:23:54;;;;;;;29.40;14.57;;;18.70;97.10;;;;;;5034368;28;20277;-83
2021/06/26 05:26:20;;;;;;;31.20;14.70;;;18.70;97.40;;;;;;5033993;28;20634;-82
2021/06/26 05:28:46;;;;;;;26.25;11.52;;;18.70;97.20;;;;;;5034316;28;20408;-82
2021/06/26 05:31:14;;;;;;;28.87;14.80;;;18.80;97.30;;;;;;5034486;28;20205;-82
2021/06/26 05:33:40;;;;;;;32.65;15.80;;;18.80;96.80;;;;;;5034052;28;20444;-82
2021/06/26 05:36:06;;;;;;;32.33;15.83;;;18.90;96.50;;;;;;5034635;28;20538;-82
2021/06/26 05:38:32;;;;;;;28.58;14.77;;;18.90;96.00;;;;;;5034855;28;20967;-82
2021/06/26 05:40:58;;;;;;;35.03;16.67;;;19.00;96.30;;;;;;5034891;28;20170;-82
2021/06/26 05:43:24;;;;;;;32.73;15.10;;;19.00;96.10;;;;;;5033965;28;20190;-83
2021/06/26 05:45:49;;;;;;;31.97;15.37;;;19.10;95.70;;;;;;5033870;28;20427;-82
2021/06/26 05:48:15;;;;;;;33.20;16.23;;;19.10;95.70;;;;;;5034811;28;20412;-82
2021/06/26 05:50:41;;;;;;;32.20;15.00;;;19.20;95.70;;;;;;5037497;28;20404;-83
2021/06/26 05:53:07;;;;;;;23.20;13.03;;;19.30;95.00;;;;;;5036383;28;20205;-82
2021/06/26 05:55:33;;;;;;;28.27;14.23;;;19.40;95.00;;;;;;5036427;28;20178;-82
2021/06/26 05:57:59;;;;;;;29.45;15.48;;;19.50;95.00;;;;;;5036096;28;20416;-83
2021/06/26 06:00:27;;;;;;;30.17;16.42;;;19.50;94.40;;;;;;5036166;28;20538;-83
2021/06/26 06:02:53;;;;;;;29.45;15.38;;;19.60;93.90;;;;;;5035570;28;20202;-82
2021/06/26 06:05:19;;;;;;;29.20;14.63;;;19.70;93.30;;;;;;5037748;28;20200;-81
2021/06/26 06:07:46;;;;;;;39.78;15.60;;;19.80;93.60;;;;;;5037562;28;20454;-81
2021/06/26 06:10:17;;;;;;;24.40;13.80;;;19.90;92.50;;;;;;5037626;28;20607;-81
2021/06/26 06:12:43;;;;;;;29.23;15.18;;;20.00;92.60;;;;;;5036747;28;20233;-81
2021/06/26 06:15:12;;;;;;;35.58;15.95;;;20.20;91.30;;;;;;5037181;28;20181;-81
2021/06/26 06:17:38;;;;;;;29.05;14.73;;;20.40;91.40;;;;;;5037100;28;20177;-84
2021/06/26 06:20:06;;;;;;;27.65;14.50;;;20.50;90.40;;;;;;5036666;28;20174;-82
2021/06/26 06:22:33;;;;;;;27.50;14.30;;;20.60;90.20;;;;;;5037206;28;20193;-81
2021/06/26 06:24:59;;;;;;;32.22;15.80;;;20.70;89.80;;;;;;5029938;28;20626;-81
2021/06/26 06:27:25;;;;;;;29.77;15.25;;;20.80;89.50;;;;;;5017442;28;20528;-81
2021/06/26 06:29:51;;;;;;;29.37;14.73;;;20.90;89.40;;;;;;5015761;28;20294;-81
2021/06/26 06:32:17;;;;;;;27.97;14.10;;;21.10;89.20;;;;;;5022181;28;20452;-82
2021/06/26 06:34:42;;;;;;;27.13;14.50;;;21.30;88.10;;;;;;5035743;28;20487;-82
2021/06/26 06:37:08;;;;;;;29.70;15.90;;;21.40;86.70;;;;;;5036143;28;20185;-81
2021/06/26 06:39:34;;;;;;;30.87;16.10;;;21.50;85.90;;;;;;5037233;28;20174;-82
2021/06/26 06:42:00;;;;;;;28.80;15.40;;;21.50;85.90;;;;;;5037374;28;20653;-82
2021/06/26 06:44:26;;;;;;;30.63;15.87;;;21.70;86.00;;;;;;5036367;28;20185;-82
2021/06/26 06:46:52;;;;;;;27.80;15.70;;;21.70;84.60;;;;;;5036176;28;20432;-82
2021/06/26 06:49:17;;;;;;;29.97;15.10;;;21.70;85.60;;;;;;5035681;28;20174;-81
2021/06/26 06:51:43;;;;;;;29.03;16.13;;;21.90;85.80;;;;;;5035287;28;20459;-82
2021/06/26 06:54:09;;;;;;;31.47;14.60;;;22.00;84.20;;;;;;5036968;28;20226;-82
2021/06/26 06:56:35;;;;;;;24.37;13.53;;;22.10;84.10;;;;;;5035591;28;20420;-80
2021/06/26 06:59:00;;;;;;;21.93;14.00;;;22.20;83.80;;;;;;5018769;28;20241;-81
2021/06/26 07:01:27;;;;;;;24.17;13.20;;;22.50;83.70;;;;;;5015725;28;20926;-81
2021/06/26 07:03:53;;;;;;;23.98;13.30;;;22.70;82.30;;;;;;5030813;22;20221;-83
2021/06/26 07:06:19;;;;;;;23.80;13.70;;;22.70;81.70;;;;;;5001258;28;20186;-83
2021/06/26 07:08:45;;;;;;;25.93;13.90;;;22.60;81.90;;;;;;5000524;28;20174;-84
2021/06/26 07:11:11;;;;;;;24.80;13.93;;;22.50;82.70;;;;;;5001995;28;20626;-84
2021/06/26 07:13:36;;;;;;;29.00;13.77;;;22.50;82.30;;;;;;5005688;28;20191;-84
2021/06/26 07:16:03;;;;;;;21.87;12.53;;;22.40;82.70;;;;;;4982500;28;20175;-85
2021/06/26 07:18:29;;;;;;;21.00;12.40;;;22.50;83.70;;;;;;4982669;28;20178;-84
2021/06/26 07:20:55;;;;;;;20.50;12.20;;;22.50;83.10;;;;;;4982506;28;20658;-84
2021/06/26 07:23:21;;;;;;;25.50;14.37;;;22.50;82.40;;;;;;4983416;28;20191;-84
2021/06/26 07:25:47;;;;;;;22.88;13.25;;;22.60;81.00;;;;;;4983647;28;20571;-84
2021/06/26 07:28:13;;;;;;;22.17;12.47;;;22.70;80.80;;;;;;4982173;28;20180;-83
2021/06/26 07:30:39;;;;;;;20.63;12.17;;;22.80;79.50;;;;;;4983492;28;20465;-83
2021/06/26 07:33:04;;;;;;;26.10;12.10;;;23.00;79.60;;;;;;4981244;28;20215;-83
2021/06/26 07:35:30;;;;;;;18.20;10.97;;;23.10;76.60;;;;;;4980752;28;20246;-83
2021/06/26 07:37:56;;;;;;;21.70;12.00;;;22.80;78.30;;;;;;4969343;28;20850;-83
2021/06/26 07:40:24;;;;;;;22.43;12.10;;;22.70;78.40;;;;;;4960912;28;20441;-84
2021/06/26 07:42:49;;;;;;;22.98;12.48;;;22.70;79.10;;;;;;4961146;28;20204;-83
2021/06/26 07:45:15;;;;;;;19.40;11.83;;;22.80;78.40;;;;;;4961001;28;20919;-83
2021/06/26 07:47:41;;;;;;;16.60;10.40;;;22.90;78.30;;;;;;4965348;28;20207;-84
2021/06/26 07:50:07;;;;;;;18.70;10.50;;;23.00;76.00;;;;;;4977445;28;20182;-84
2021/06/26 07:52:33;;;;;;;21.80;11.23;;;23.10;75.30;;;;;;4977227;28;20455;-84
2021/06/26 07:55:00;;;;;;;17.63;10.20;;;23.30;74.90;;;;;;4977192;28;20640;-83
2021/06/26 07:57:26;;;;;;;17.17;9.80;;;23.40;74.20;;;;;;4978179;28;20181;-84
2021/06/26 07:59:52;;;;;;;16.83;10.77;;;23.40;73.50;;;;;;4975831;28;20256;-84
2021/06/26 08:02:17;;;;;;;14.20;9.63;;;23.30;72.70;;;;;;4975502;28;20179;-85
2021/06/26 08:04:43;;;;;;;16.20;9.13;;;23.30;73.50;;;;;;4976418;28;20200;-85
2021/06/26 08:07:09;;;;;;;20.57;10.27;;;23.40;72.00;;;;;;4977282;28;20718;-85
2021/06/26 08:09:35;;;;;;;14.80;8.40;;;23.30;71.20;;;;;;4977524;28;20545;-85
2021/06/26 08:12:00;;;;;;;12.53;7.83;;;23.30;72.10;;;;;;4976289;28;20738;-85
2021/06/26 08:14:26;;;;;;;14.80;9.03;;;23.40;70.20;;;;;;4976567;28;20200;-85
2021/06/26 08:16:52;;;;;;;12.60;8.83;;;23.40;70.60;;;;;;4976320;28;20418;-85
2021/06/26 08:19:18;;;;;;;15.93;9.20;;;23.40;68.90;;;;;;4976672;28;20174;-85
2021/06/26 08:21:46;;;;;;;18.43;8.20;;;23.40;70.60;;;;;;4976881;28;20176;-85
2021/06/26 08:24:12;;;;;;;13.45;7.65;;;23.60;70.60;;;;;;4975954;28;20192;-85
2021/06/26 08:26:37;;;;;;;12.57;7.30;;;23.90;70.20;;;;;;4975214;28;20603;-85
2021/06/26 08:29:03;;;;;;;13.03;7.90;;;24.10;69.10;;;;;;4975548;28;20191;-85
2021/06/26 08:31:29;;;;;;;15.03;8.77;;;24.30;68.90;;;;;;4974736;28;20225;-85
2021/06/26 08:33:55;;;;;;;25.33;10.37;;;24.50;68.10;;;;;;4976423;28;20192;-85
2021/06/26 08:36:20;;;;;;;14.60;9.40;;;24.60;67.30;;;;;;4975368;28;20781;-85
2021/06/26 08:38:46;;;;;;;13.60;8.73;;;24.70;67.40;;;;;;4976126;28;20172;-85
2021/06/26 08:41:13;;;;;;;12.60;7.80;;;25.00;64.20;;;;;;4976382;28;20715;-84
2021/06/26 08:43:42;;;;;;;11.00;7.22;;;25.10;64.50;;;;;;4976378;28;20195;-84
2021/06/26 08:46:08;;;;;;;15.18;7.70;;;25.30;63.80;;;;;;4975578;28;20184;-84
2021/06/26 08:48:35;;;;;;;10.70;7.57;;;25.50;65.30;;;;;;4976397;28;20492;-85
2021/06/26 08:51:01;;;;;;;18.33;9.18;;;25.60;64.80;;;;;;4975623;28;20172;-84
2021/06/26 08:53:26;;;;;;;12.67;7.60;;;25.70;63.30;;;;;;4976035;28;20199;-85
2021/06/26 08:55:55;;;;;;;12.60;7.20;;;25.70;63.30;;;;;;4975231;28;20178;-85
2021/06/26 08:58:21;;;;;;;11.38;7.60;;;25.80;62.10;;;;;;4975072;28;20172;-85
2021/06/26 09:00:47;;;;;;;10.55;7.38;;;25.90;61.70;;;;;;4976002;28;20168;-84
2021/06/26 09:03:18;;;;;;;11.30;7.97;;;26.10;61.60;;;;;;4975793;28;20200;-85
2021/06/26 09:05:45;;;;;;;11.52;8.02;;;26.40;60.90;;;;;;4975104;28;20191;-86
2021/06/26 09:08:19;;;;;;;14.45;7.38;;;26.30;58.00;;;;;;4975173;28;20205;-84
2021/06/26 09:10:47;;;;;;;13.38;8.18;;;26.20;59.70;;;;;;4976003;28;20234;-84
2021/06/26 09:13:28;;;;;;;11.20;7.40;;;26.10;60.10;;;;;;4976373;28;20302;-85
2021/06/26 09:16:10;;;;;;;11.65;7.78;;;26.10;61.30;;;;;;4975970;28;20508;-85
2021/06/26 09:18:56;;;;;;;11.40;6.88;;;26.20;61.60;;;;;;4975202;28;20584;-85
2021/06/26 09:21:36;;;;;;;12.07;8.23;;;26.10;60.60;;;;;;4975437;28;20267;-86
2021/06/26 09:24:12;;;;;;;15.73;8.30;;;25.90;59.40;;;;;;4978747;28;20200;-85
2021/06/26 09:26:54;;;;;;;10.18;6.85;;;25.90;62.40;;;;;;4979318;28;20503;-85
2021/06/26 09:29:19;;;;;;;10.10;7.20;;;26.10;61.70;;;;;;4978359;28;20175;-85
2021/06/26 09:31:57;;;;;;;10.07;6.57;;;26.30;59.20;;;;;;4978384;28;20231;-85
2021/06/26 09:34:37;;;;;;;11.20;7.93;;;26.20;58.70;;;;;;4978786;28;20196;-85
2021/06/26 09:37:06;;;;;;;12.85;7.93;;;26.10;58.80;;;;;;4978307;28;20279;-85
2021/06/26 09:39:40;;;;;;;10.82;6.85;;;26.00;59.30;;;;;;4978655;28;20179;-85
2021/06/26 09:42:17;;;;;;;13.32;7.95;;;26.00;58.80;;;;;;4978783;28;20171;-85
2021/06/26 09:45:00;;;;;;;14.77;7.95;;;26.10;59.10;;;;;;4963145;28;20308;-85
2021/06/26 09:47:40;;;;;;;11.00;7.35;;;26.60;60.60;;;;;;4979060;28;20179;-84
2021/06/26 09:50:26;;;;;;;12.52;6.85;;;26.90;56.80;;;;;;4978798;28;20184;-85
2021/06/26 09:52:54;;;;;;;16.40;7.80;;;27.20;57.60;;;;;;4978652;28;20218;-85
2021/06/26 09:55:27;;;;;;;12.13;7.45;;;27.40;57.20;;;;;;4978277;28;20183;-85
2021/06/26 09:57:58;;;;;;;16.25;9.63;;;27.40;58.40;;;;;;4978786;28;20222;-85
2021/06/26 10:00:27;;;;;;;11.20;8.25;;;27.10;57.50;;;;;;4980576;28;20187;-85
2021/06/26 10:02:53;;;;;;;15.85;8.63;;;26.90;58.80;;;;;;4979050;28;20223;-85
2021/06/26 10:05:19;;;;;;;12.57;8.27;;;26.60;58.90;;;;;;4978725;28;20599;-85
2021/06/26 10:07:48;;;;;;;12.07;7.95;;;26.50;59.80;;;;;;4978582;28;20442;-85
2021/06/26 10:10:17;;;;;;;12.40;8.90;;;26.70;61.30;;;;;;4978714;28;20182;-85
2021/06/26 10:12:43;;;;;;;11.27;7.57;;;26.90;59.60;;;;;;4978088;28;20223;-85
2021/06/26 10:15:11;;;;;;;11.88;8.02;;;27.20;58.00;;;;;;4978727;28;20198;-85
2021/06/26 10:17:37;;;;;;;9.82;7.00;;;27.50;60.00;;;;;;4977965;28;20180;-85
2021/06/26 10:20:06;;;;;;;12.25;7.72;;;27.90;55.80;;;;;;4977466;28;20174;-85
2021/06/26 10:22:42;;;;;;;8.52;6.32;;;27.80;55.10;;;;;;4976914;28;20254;-85
2021/06/26 10:25:10;;;;;;;10.50;6.85;;;27.70;56.30;;;;;;4977317;28;20175;-85
2021/06/26 10:27:37;;;;;;;9.27;6.43;;;27.60;56.20;;;;;;4976815;28;20179;-85
2021/06/26 10:30:35;;;;;;;10.65;7.20;;;27.40;57.60;;;;;;4977054;28;20182;-85
2021/06/26 10:33:04;;;;;;;13.15;7.90;;;27.30;56.20;;;;;;4945903;28;20219;-85
2021/06/26 10:35:33;;;;;;;16.85;7.20;;;27.40;60.00;;;;;;4976073;28;20176;-85
2021/06/26 10:38:12;;;;;;;11.43;7.25;;;27.50;60.20;;;;;;4977326;28;20230;-85
2021/06/26 10:40:40;;;;;;;12.00;6.80;;;27.50;58.70;;;;;;4977902;28;20176;-85
2021/06/26 10:43:30;;;;;;;10.60;7.82;;;27.50;56.70;;;;;;4960618;28;20242;-85
2021/06/26 10:46:09;;;;;;;10.82;7.20;;;27.30;57.20;;;;;;4976660;28;20203;-85
2021/06/26 10:48:38;;;;;;;9.05;7.00;;;27.30;56.70;;;;;;4977777;28;20180;-84
2021/06/26 10:51:04;;;;;;;12.10;7.45;;;27.50;58.40;;;;;;4977114;28;20184;-85
2021/06/26 10:53:35;;;;;;;9.45;6.47;;;27.70;55.70;;;;;;4977074;28;20557;-85
2021/06/26 10:56:06;;;;;;;10.88;6.93;;;27.70;58.30;;;;;;4978556;28;20582;-85
2021/06/26 10:58:34;;;;;;;9.23;7.18;;;27.70;57.40;;;;;;4960862;28;20172;-84
2021/06/26 11:01:14;;;;;;;7.57;5.72;;;27.70;57.90;;;;;;4976778;28;20183;-85
2021/06/26 11:03:41;;;;;;;11.05;6.95;;;27.70;59.10;;;;;;4976560;28;20238;-85
2021/06/26 11:06:16;;;;;;;11.65;7.18;;;27.50;56.00;;;;;;4975799;28;20241;-85
2021/06/26 11:08:41;;;;;;;11.10;7.22;;;27.30;56.00;;;;;;4975811;28;20744;-86
2021/06/26 11:11:07;;;;;;;10.03;6.50;;;27.00;58.40;;;;;;4976268;28;20180;-84
2021/06/26 11:13:33;;;;;;;11.77;6.63;;;26.80;59.30;;;;;;4976706;28;20435;-85
2021/06/26 11:16:08;;;;;;;13.63;6.87;;;26.80;58.40;;;;;;4977237;28;20259;-85
2021/06/26 11:18:34;;;;;;;9.07;7.00;;;26.70;58.80;;;;;;4975224;28;20175;-86
2021/06/26 11:21:02;;;;;;;8.98;6.63;;;26.80;59.60;;;;;;4975067;28;20179;-86
2021/06/26 11:23:28;;;;;;;9.55;6.88;;;26.90;57.70;;;;;;4974846;28;20566;-87
2021/06/26 11:26:05;;;;;;;8.17;6.03;;;27.00;57.70;;;;;;4979126;28;20187;-87
2021/06/26 11:28:43;;;;;;;10.68;6.88;;;27.20;56.40;;;;;;4977038;28;20439;-87
2021/06/26 11:31:09;;;;;;;10.10;5.90;;;27.50;57.70;;;;;;4974838;28;20628;-86
2021/06/26 11:33:36;;;;;;;8.07;6.43;;;27.60;55.80;;;;;;4974690;28;20196;-86
2021/06/26 11:36:07;;;;;;;10.43;5.63;;;27.40;56.60;;;;;;4974630;28;20267;-87
2021/06/26 11:38:33;;;;;;;8.20;5.32;;;27.40;56.70;;;;;;4974743;28;20211;-86
2021/06/26 11:41:11;;;;;;;11.10;7.20;;;27.30;55.90;;;;;;4974431;28;20172;-87
2021/06/26 11:43:46;;;;;;;15.90;9.27;;;27.30;56.00;;;;;;4974531;28;20943;-86
2021/06/26 11:46:12;;;;;;;10.93;7.35;;;27.30;57.70;;;;;;4974149;28;20234;-85
2021/06/26 11:48:38;;;;;;;11.27;7.70;;;27.20;56.70;;;;;;4977373;28;20176;-86
2021/06/26 11:51:06;;;;;;;11.00;7.80;;;27.20;59.20;;;;;;4974703;28;20477;-86
2021/06/26 11:53:36;;;;;;;9.38;6.72;;;27.40;60.90;;;;;;4974485;28;20198;-85
2021/06/26 11:56:03;;;;;;;12.02;6.72;;;27.60;60.10;;;;;;4975466;28;20168;-85
2021/06/26 11:58:44;;;;;;;10.57;7.55;;;27.80;57.20;;;;;;4975320;28;20176;-86
2021/06/26 12:01:11;;;;;;;12.52;7.70;;;28.00;57.50;;;;;;4974536;28;20254;-86
2021/06/26 12:03:38;;;;;;;7.90;6.35;;;28.20;57.60;;;;;;4958262;28;20282;-87
2021/06/26 12:06:15;;;;;;;8.70;6.22;;;28.60;55.10;;;;;;4974034;28;20195;-87
2021/06/26 12:08:48;;;;;;;10.27;6.65;;;28.70;54.90;;;;;;4974153;28;20254;-88
2021/06/26 12:11:16;;;;;;;10.55;7.53;;;28.50;53.70;;;;;;4958293;28;20172;-87
2021/06/26 12:13:43;;;;;;;10.50;7.25;;;28.30;53.80;;;;;;4974075;28;20195;-87
2021/06/26 12:16:20;;;;;;;9.73;6.40;;;28.40;53.90;;;;;;4975113;28;20546;-86
2021/06/26 12:18:50;;;;;;;10.05;7.03;;;28.50;54.10;;;;;;4975609;28;20843;-85
2021/06/26 12:21:16;;;;;;;9.93;7.35;;;28.80;54.50;;;;;;4976286;28;20624;-84
2021/06/26 12:23:47;;;;;;;10.07;6.97;;;29.30;54.20;;;;;;4977648;28;20286;-84
2021/06/26 12:26:17;;;;;;;7.60;6.00;;;29.50;54.70;;;;;;4976966;28;20635;-84
2021/06/26 12:28:43;;;;;;;8.63;6.03;;;29.60;51.20;;;;;;4961724;28;20364;-84
2021/06/26 12:31:09;;;;;;;8.23;5.90;;;29.60;52.50;;;;;;4976214;28;20199;-84
2021/06/26 12:33:35;;;;;;;7.60;5.57;;;29.60;52.10;;;;;;4977171;28;21018;-85